Time;durP1;ratioP1;P1;durP2;ratioP2;P2;SDS_P1;SDS_P2;PMS_P1;PMS_P2;Temp;Humidity;BMP_temperature;BMP_pressure;BME280_temperature;BME280_humidity;BME280_pressure;Samples;Min_cycle;Max_cycle;Signal;HPM_P1;HPM_P2
2022/07/11 00:02:23;;;;;;;;;4.00;4.00;;;;;;;;5053043;28;51254;-63
2022/07/11 00:04:48;;;;;;;;;2.00;2.00;;;;;;;;5052142;28;52710;-64
2022/07/11 00:07:14;;;;;;;;;3.67;3.00;;;;;;;;5052289;28;51236;-64
2022/07/11 00:09:39;;;;;;;;;3.00;3.00;;;;;;;;5072066;27;51084;-63
2022/07/11 00:12:06;;;;;;;;;4.33;4.00;;;;;;;;5068237;28;51450;-63
2022/07/11 00:14:31;;;;;;;;;3.00;3.00;;;;;;;;5058353;28;51115;-64
2022/07/11 00:16:56;;;;;;;;;3.00;3.00;;;;;;;;5060796;28;51355;-63
2022/07/11 00:19:21;;;;;;;;;2.00;2.00;;;;;;;;5052006;28;51074;-63
2022/07/11 00:21:47;;;;;;;;;4.00;4.00;;;;;;;;5062141;28;51269;-63
2022/07/11 00:24:12;;;;;;;;;2.00;2.00;;;;;;;;5053149;28;51601;-63
2022/07/11 00:26:37;;;;;;;;;2.00;2.00;;;;;;;;5052473;28;51357;-61
2022/07/11 00:29:03;;;;;;;;;3.00;3.00;;;;;;;;5054102;28;51014;-62
2022/07/11 00:31:28;;;;;;;;;2.67;2.67;;;;;;;;5060360;28;51296;-69
2022/07/11 00:33:54;;;;;;;;;3.00;3.00;;;;;;;;5065597;28;51435;-69
2022/07/11 00:36:19;;;;;;;;;3.00;3.00;;;;;;;;5044488;28;51256;-66
2022/07/11 00:41:31;;;;;;;;;;;;;;;;;;3287791;28;44494847;-67
2022/07/11 00:43:57;;;;;;;;;4.00;3.00;;;;;;;;4300733;27;9702843;-65
2022/07/11 00:46:24;;;;;;;;;2.00;2.00;;;;;;;;5063680;28;51173;-67
2022/07/11 00:48:49;;;;;;;;;2.00;2.00;;;;;;;;5063625;28;51077;-66
2022/07/11 00:51:15;;;;;;;;;3.00;2.00;;;;;;;;5069167;28;51345;-65
2022/07/11 00:53:41;;;;;;;;;2.00;2.00;;;;;;;;5074861;27;49659;-65
2022/07/11 00:56:07;;;;;;;;;2.33;2.00;;;;;;;;5081765;27;32233;-64
2022/07/11 00:58:32;;;;;;;;;3.00;2.33;;;;;;;;5072366;28;31931;-66
2022/07/11 01:00:57;;;;;;;;;3.00;3.00;;;;;;;;5081184;28;31895;-66
2022/07/11 01:03:23;;;;;;;;;3.00;3.00;;;;;;;;5086927;28;31689;-67
2022/07/11 01:05:48;;;;;;;;;2.00;2.00;;;;;;;;5049977;28;31910;-66
2022/07/11 01:08:13;;;;;;;;;2.00;2.00;;;;;;;;5070861;28;32018;-65
2022/07/11 01:10:38;;;;;;;;;2.00;2.00;;;;;;;;5065790;27;32135;-65
2022/07/11 01:13:04;;;;;;;;;2.00;2.00;;;;;;;;5081216;27;31968;-65
2022/07/11 01:15:29;;;;;;;;;3.00;3.00;;;;;;;;5077725;27;32043;-62
2022/07/11 01:17:54;;;;;;;;;2.00;2.00;;;;;;;;5067256;28;32009;-62
2022/07/11 01:20:20;;;;;;;;;3.00;3.00;;;;;;;;5057200;28;32045;-62
2022/07/11 01:22:52;;;;;;;;;3.00;3.00;;;;;;;;5077894;27;31836;-60
2022/07/11 01:25:30;;;;;;;;;2.67;2.67;;;;;;;;5076734;27;33321;-60
2022/07/11 01:27:58;;;;;;;;;2.00;2.00;;;;;;;;5079648;27;31866;-63
2022/07/11 01:30:23;;;;;;;;;2.00;2.00;;;;;;;;5075162;28;31822;-63
2022/07/11 01:32:50;;;;;;;;;2.00;2.00;;;;;;;;5054549;28;31969;-63
2022/07/11 01:35:16;;;;;;;;;2.67;2.33;;;;;;;;5083676;27;32014;-61
2022/07/11 01:37:41;;;;;;;;;2.67;2.67;;;;;;;;5060015;28;31929;-62
2022/07/11 01:40:07;;;;;;;;;2.00;1.00;;;;;;;;5078240;28;31909;-62
2022/07/11 01:42:32;;;;;;;;;3.33;2.67;;;;;;;;5074974;27;31950;-62
2022/07/11 01:44:57;;;;;;;;;2.00;2.00;;;;;;;;5074768;27;36353;-62
2022/07/11 01:47:22;;;;;;;;;2.00;2.00;;;;;;;;5065813;28;47644;-62
2022/07/11 01:49:47;;;;;;;;;2.67;2.67;;;;;;;;5056978;27;50753;-64
2022/07/11 01:52:12;;;;;;;;;2.33;2.00;;;;;;;;5061938;27;51242;-62
2022/07/11 01:54:38;;;;;;;;;2.00;2.00;;;;;;;;5049490;28;52640;-61
2022/07/11 01:57:03;;;;;;;;;2.00;2.00;;;;;;;;5058944;28;51112;-62
2022/07/11 01:59:28;;;;;;;;;2.00;2.00;;;;;;;;5063194;28;51157;-62
2022/07/11 02:01:53;;;;;;;;;3.00;2.00;;;;;;;;5065679;28;50865;-63
2022/07/11 02:04:20;;;;;;;;;2.00;2.00;;;;;;;;5055977;27;50978;-62
2022/07/11 02:06:45;;;;;;;;;2.00;2.00;;;;;;;;5054842;28;51014;-63
2022/07/11 02:09:10;;;;;;;;;3.67;3.00;;;;;;;;5062048;27;51123;-62
2022/07/11 02:11:35;;;;;;;;;2.33;2.00;;;;;;;;5039702;28;51203;-61
2022/07/11 02:14:02;;;;;;;;;2.00;2.00;;;;;;;;5056510;27;51216;-62
2022/07/11 02:16:27;;;;;;;;;4.00;3.00;;;;;;;;5064861;28;51175;-63
2022/07/11 02:18:52;;;;;;;;;2.00;2.00;;;;;;;;5054830;28;51244;-63
2022/07/11 02:21:18;;;;;;;;;3.00;2.00;;;;;;;;5054856;27;51108;-63
2022/07/11 02:23:43;;;;;;;;;3.33;3.33;;;;;;;;5061620;27;51595;-63
2022/07/11 02:26:08;;;;;;;;;2.00;2.00;;;;;;;;5063622;27;51258;-64
2022/07/11 02:28:34;;;;;;;;;2.67;2.67;;;;;;;;5068338;27;51220;-62
2022/07/11 02:30:59;;;;;;;;;3.00;2.33;;;;;;;;5061738;28;51295;-63
2022/07/11 02:33:24;;;;;;;;;3.33;3.33;;;;;;;;5038777;28;52709;-63
2022/07/11 02:35:50;;;;;;;;;3.00;3.00;;;;;;;;5065769;28;51053;-62
2022/07/11 02:38:15;;;;;;;;;4.00;4.00;;;;;;;;5064923;27;52174;-63
2022/07/11 02:40:40;;;;;;;;;3.00;2.00;;;;;;;;5057610;28;51085;-63
2022/07/11 02:43:06;;;;;;;;;3.00;3.00;;;;;;;;5051715;28;51306;-63
2022/07/11 02:45:31;;;;;;;;;3.33;3.33;;;;;;;;5063248;27;50947;-63
2022/07/11 02:47:56;;;;;;;;;2.67;2.67;;;;;;;;5054418;28;51372;-62
2022/07/11 02:50:21;;;;;;;;;2.00;2.00;;;;;;;;5054244;28;52629;-63
2022/07/11 02:52:47;;;;;;;;;3.00;2.33;;;;;;;;5056389;28;52819;-62
2022/07/11 02:55:12;;;;;;;;;3.00;3.00;;;;;;;;5046402;27;51854;-62
2022/07/11 02:57:40;;;;;;;;;2.67;2.67;;;;;;;;5046201;28;51147;-62
2022/07/11 03:00:08;;;;;;;;;3.00;3.00;;;;;;;;5048272;27;51383;-61
2022/07/11 03:02:33;;;;;;;;;3.33;3.00;;;;;;;;5044283;28;51369;-61
2022/07/11 03:04:58;;;;;;;;;3.00;3.00;;;;;;;;5054121;28;51070;-62
2022/07/11 03:07:25;;;;;;;;;3.33;3.33;;;;;;;;5047163;28;51124;-61
2022/07/11 03:09:50;;;;;;;;;2.67;2.67;;;;;;;;5046779;27;52881;-62
2022/07/11 03:12:15;;;;;;;;;3.00;3.00;;;;;;;;5029072;28;52902;-63
2022/07/11 03:14:40;;;;;;;;;3.00;3.00;;;;;;;;5049619;27;51175;-63
2022/07/11 03:17:06;;;;;;;;;2.00;2.00;;;;;;;;5045532;27;51754;-63
2022/07/11 03:19:31;;;;;;;;;4.00;3.00;;;;;;;;5028290;27;51522;-67
2022/07/11 03:21:56;;;;;;;;;3.67;3.67;;;;;;;;5046066;27;52239;-62
2022/07/11 03:24:21;;;;;;;;;3.00;3.00;;;;;;;;5048332;27;50935;-62
2022/07/11 03:26:46;;;;;;;;;3.67;3.67;;;;;;;;5044417;28;51236;-64
2022/07/11 03:29:11;;;;;;;;;3.33;3.00;;;;;;;;5045594;27;51826;-61
2022/07/11 03:31:37;;;;;;;;;5.00;4.00;;;;;;;;5048508;28;51765;-64
2022/07/11 03:34:02;;;;;;;;;4.00;3.67;;;;;;;;5069537;28;51037;-63
2022/07/11 03:36:27;;;;;;;;;3.00;3.00;;;;;;;;5065916;28;51077;-64
2022/07/11 03:38:52;;;;;;;;;3.00;3.00;;;;;;;;5069185;28;50895;-64
2022/07/11 03:41:18;;;;;;;;;5.00;4.00;;;;;;;;5054139;28;51987;-64
2022/07/11 03:43:43;;;;;;;;;5.00;5.00;;;;;;;;5047508;28;51027;-63
2022/07/11 03:46:08;;;;;;;;;3.33;3.33;;;;;;;;5061738;28;50997;-64
2022/07/11 03:48:34;;;;;;;;;3.00;3.00;;;;;;;;5054472;28;51087;-65
2022/07/11 03:50:59;;;;;;;;;4.00;4.00;;;;;;;;5064660;28;51955;-64
2022/07/11 03:53:24;;;;;;;;;4.67;4.00;;;;;;;;5066620;28;51038;-63
2022/07/11 03:55:49;;;;;;;;;5.33;5.00;;;;;;;;5054798;28;51357;-64
2022/07/11 03:58:14;;;;;;;;;4.33;4.00;;;;;;;;5069708;28;51150;-64
2022/07/11 04:00:40;;;;;;;;;6.00;5.67;;;;;;;;5055434;28;51756;-65
2022/07/11 04:03:05;;;;;;;;;5.00;5.00;;;;;;;;5053751;28;51177;-63
2022/07/11 04:05:30;;;;;;;;;5.67;5.67;;;;;;;;5046107;28;51647;-64
2022/07/11 04:07:56;;;;;;;;;5.00;5.00;;;;;;;;5055168;28;51327;-64
2022/07/11 04:10:22;;;;;;;;;4.67;4.00;;;;;;;;5066786;28;51860;-65
2022/07/11 04:12:47;;;;;;;;;2.67;2.67;;;;;;;;5054954;28;51217;-63
2022/07/11 04:15:12;;;;;;;;;4.67;4.67;;;;;;;;5050728;28;52374;-64
2022/07/11 04:17:38;;;;;;;;;4.67;4.67;;;;;;;;5052292;28;51332;-64
2022/07/11 04:20:04;;;;;;;;;4.00;4.00;;;;;;;;5053323;28;51934;-63
2022/07/11 04:22:29;;;;;;;;;6.00;4.33;;;;;;;;5066050;28;51246;-65
2022/07/11 04:24:54;;;;;;;;;4.00;4.00;;;;;;;;5068033;28;51219;-64
2022/07/11 04:27:19;;;;;;;;;3.67;3.67;;;;;;;;5054210;28;51330;-64
2022/07/11 04:29:45;;;;;;;;;3.00;3.00;;;;;;;;5056531;28;51926;-64
2022/07/11 04:32:10;;;;;;;;;3.33;3.33;;;;;;;;5054252;28;51092;-64
2022/07/11 04:34:35;;;;;;;;;3.33;3.33;;;;;;;;5055003;28;51105;-64
2022/07/11 04:37:00;;;;;;;;;4.00;4.00;;;;;;;;5057223;28;51144;-64
2022/07/11 04:39:26;;;;;;;;;5.00;5.00;;;;;;;;5055472;28;52801;-65
2022/07/11 04:41:51;;;;;;;;;4.33;4.33;;;;;;;;5053923;28;51093;-64
2022/07/11 04:44:16;;;;;;;;;4.67;4.67;;;;;;;;5059213;28;51434;-63
2022/07/11 04:46:41;;;;;;;;;5.33;4.67;;;;;;;;5040884;28;51406;-64
2022/07/11 04:49:07;;;;;;;;;6.00;5.00;;;;;;;;5053857;28;51864;-65
2022/07/11 04:51:32;;;;;;;;;4.00;4.00;;;;;;;;5056528;28;51001;-64
2022/07/11 04:53:57;;;;;;;;;4.33;4.33;;;;;;;;5056490;28;51097;-65
2022/07/11 04:56:22;;;;;;;;;6.00;6.00;;;;;;;;5060993;28;50887;-64
2022/07/11 04:58:47;;;;;;;;;4.33;4.33;;;;;;;;5064409;28;51083;-65
2022/07/11 05:01:13;;;;;;;;;6.00;6.00;;;;;;;;5059980;28;51115;-64
2022/07/11 05:03:38;;;;;;;;;4.00;4.00;;;;;;;;5074570;28;51145;-64
2022/07/11 05:06:04;;;;;;;;;5.00;5.00;;;;;;;;5057013;28;51258;-64
2022/07/11 05:08:30;;;;;;;;;7.00;7.00;;;;;;;;5053862;28;52147;-65
2022/07/11 05:10:55;;;;;;;;;6.00;6.00;;;;;;;;5057070;28;51072;-64
2022/07/11 05:13:21;;;;;;;;;5.33;5.00;;;;;;;;5057758;28;51172;-65
2022/07/11 05:15:46;;;;;;;;;8.00;7.67;;;;;;;;5056413;28;51539;-64
2022/07/11 05:18:11;;;;;;;;;6.00;6.00;;;;;;;;5058251;28;51270;-65
2022/07/11 05:20:37;;;;;;;;;6.00;6.00;;;;;;;;5057284;28;51238;-65
2022/07/11 05:23:02;;;;;;;;;6.00;5.00;;;;;;;;5070790;28;51035;-65
2022/07/11 05:25:28;;;;;;;;;6.00;6.00;;;;;;;;5054788;28;50946;-65
2022/07/11 05:27:53;;;;;;;;;5.33;5.00;;;;;;;;5058139;28;51891;-66
2022/07/11 05:30:18;;;;;;;;;5.00;5.00;;;;;;;;5074000;27;51060;-64
2022/07/11 05:32:43;;;;;;;;;6.00;6.00;;;;;;;;5061597;28;51176;-65
2022/07/11 05:35:09;;;;;;;;;5.00;5.00;;;;;;;;5053854;28;51282;-64
2022/07/11 05:37:34;;;;;;;;;4.00;4.00;;;;;;;;5057773;28;51121;-65
2022/07/11 05:39:59;;;;;;;;;3.00;3.00;;;;;;;;5034789;28;51101;-66
2022/07/11 05:42:24;;;;;;;;;7.33;6.33;;;;;;;;5060890;28;51169;-64
2022/07/11 05:44:49;;;;;;;;;6.00;5.33;;;;;;;;5061720;28;51240;-65
2022/07/11 05:47:15;;;;;;;;;6.00;5.00;;;;;;;;5073644;28;51724;-65
2022/07/11 05:49:40;;;;;;;;;4.00;4.00;;;;;;;;5072715;28;51036;-64
2022/07/11 05:52:06;;;;;;;;;6.00;5.33;;;;;;;;5056285;28;51247;-65
2022/07/11 05:54:31;;;;;;;;;5.00;5.00;;;;;;;;5062849;28;51109;-66
2022/07/11 05:56:56;;;;;;;;;7.00;6.00;;;;;;;;5066045;28;51707;-65
2022/07/11 05:59:21;;;;;;;;;5.00;5.00;;;;;;;;5053366;28;51083;-64
2022/07/11 06:01:47;;;;;;;;;6.00;6.00;;;;;;;;5064495;27;51091;-64
2022/07/11 06:04:12;;;;;;;;;4.67;4.67;;;;;;;;5053030;28;51372;-66
2022/07/11 06:06:38;;;;;;;;;4.00;4.00;;;;;;;;5051645;28;51101;-65
2022/07/11 06:09:03;;;;;;;;;4.67;4.67;;;;;;;;5052717;28;51070;-65
2022/07/11 06:11:28;;;;;;;;;4.67;4.67;;;;;;;;5056036;28;51244;-65
2022/07/11 06:13:53;;;;;;;;;3.00;3.00;;;;;;;;5053295;28;51055;-66
2022/07/11 06:16:19;;;;;;;;;7.33;6.67;;;;;;;;5051446;28;52223;-65
2022/07/11 06:18:44;;;;;;;;;6.00;6.00;;;;;;;;5053945;27;51156;-66
2022/07/11 06:21:09;;;;;;;;;5.67;5.33;;;;;;;;5062395;27;51010;-65
2022/07/11 06:23:35;;;;;;;;;5.00;5.00;;;;;;;;5060502;28;51211;-69
2022/07/11 06:26:00;;;;;;;;;5.67;4.00;;;;;;;;5060772;28;51891;-66
2022/07/11 06:28:25;;;;;;;;;4.00;4.00;;;;;;;;5054465;28;51142;-65
2022/07/11 06:30:51;;;;;;;;;5.00;5.00;;;;;;;;5060693;27;51098;-66
2022/07/11 06:33:17;;;;;;;;;5.00;5.00;;;;;;;;5064513;27;51231;-66
2022/07/11 06:35:42;;;;;;;;;4.67;4.67;;;;;;;;5053739;28;51177;-65
2022/07/11 06:38:08;;;;;;;;;4.00;4.00;;;;;;;;5042608;28;51093;-65
2022/07/11 06:40:33;;;;;;;;;3.33;3.33;;;;;;;;5056066;28;51866;-66
2022/07/11 06:42:58;;;;;;;;;4.67;4.67;;;;;;;;5058212;27;50993;-68
2022/07/11 06:45:23;;;;;;;;;4.00;4.00;;;;;;;;5061594;27;51177;-65
2022/07/11 06:47:48;;;;;;;;;4.00;4.00;;;;;;;;5061993;27;51284;-65
2022/07/11 06:50:14;;;;;;;;;4.33;4.33;;;;;;;;5065672;28;51268;-64
2022/07/11 06:52:39;;;;;;;;;4.33;4.00;;;;;;;;5060579;28;51367;-64
2022/07/11 06:55:04;;;;;;;;;5.00;5.00;;;;;;;;5064030;28;51168;-64
2022/07/11 06:57:29;;;;;;;;;2.00;2.00;;;;;;;;5033755;28;51334;-69
2022/07/11 06:59:55;;;;;;;;;4.33;3.67;;;;;;;;5052174;28;51045;-65
2022/07/11 07:02:20;;;;;;;;;4.00;3.00;;;;;;;;5039888;28;51001;-65
2022/07/11 07:04:46;;;;;;;;;2.00;2.00;;;;;;;;5052065;28;50801;-64
2022/07/11 07:07:11;;;;;;;;;2.00;2.00;;;;;;;;5069788;28;50935;-66
2022/07/11 07:09:37;;;;;;;;;2.33;1.67;;;;;;;;5066879;28;51084;-67
2022/07/11 07:12:03;;;;;;;;;4.00;3.00;;;;;;;;5052122;28;51291;-70
2022/07/11 07:14:28;;;;;;;;;1.00;1.00;;;;;;;;5051881;28;51697;-67
2022/07/11 07:16:53;;;;;;;;;3.00;2.67;;;;;;;;5052900;28;51077;-67
2022/07/11 07:19:18;;;;;;;;;3.00;3.00;;;;;;;;5057547;28;51353;-67
2022/07/11 07:21:44;;;;;;;;;2.33;2.33;;;;;;;;5070300;28;51388;-68
2022/07/11 07:24:09;;;;;;;;;0.00;0.00;;;;;;;;5072208;28;51774;-67
2022/07/11 07:26:34;;;;;;;;;2.67;2.00;;;;;;;;5072248;28;51069;-67
2022/07/11 07:29:00;;;;;;;;;4.00;3.67;;;;;;;;5071696;28;51299;-69
2022/07/11 07:31:25;;;;;;;;;2.67;2.67;;;;;;;;5054438;28;51313;-65
2022/07/11 07:33:50;;;;;;;;;2.00;2.00;;;;;;;;5064237;28;51136;-63
2022/07/11 07:36:16;;;;;;;;;2.00;2.00;;;;;;;;5059078;28;50932;-67
2022/07/11 07:38:43;;;;;;;;;1.67;1.67;;;;;;;;5072555;28;51072;-67
2022/07/11 07:41:08;;;;;;;;;2.00;2.00;;;;;;;;5070521;28;51205;-66
2022/07/11 07:43:33;;;;;;;;;2.00;2.00;;;;;;;;5052845;28;50975;-67
2022/07/11 07:45:59;;;;;;;;;1.00;1.00;;;;;;;;5052053;28;51022;-67
2022/07/11 07:48:24;;;;;;;;;1.00;1.00;;;;;;;;5034000;28;51198;-67
2022/07/11 07:50:50;;;;;;;;;2.00;1.67;;;;;;;;5060637;28;51125;-68
2022/07/11 07:53:15;;;;;;;;;1.00;1.00;;;;;;;;5061804;28;52487;-66
2022/07/11 07:55:41;;;;;;;;;1.33;1.33;;;;;;;;5051873;28;50916;-66
2022/07/11 07:58:06;;;;;;;;;2.00;2.00;;;;;;;;5051834;28;50922;-66
2022/07/11 08:03:15;;;;;;;;;1.33;1.33;;;;;;;;5051453;28;50951;-67
2022/07/11 08:05:40;;;;;;;;;2.00;1.00;;;;;;;;5051502;27;51250;-67
2022/07/11 08:08:06;;;;;;;;;2.67;2.00;;;;;;;;5054680;27;51147;-68
2022/07/11 08:10:31;;;;;;;;;2.00;2.00;;;;;;;;5054809;27;51059;-67
2022/07/11 08:12:56;;;;;;;;;2.00;2.00;;;;;;;;5050905;28;51156;-68
2022/07/11 08:15:21;;;;;;;;;1.33;1.33;;;;;;;;5051626;28;51071;-69
2022/07/11 08:17:47;;;;;;;;;2.00;2.00;;;;;;;;5059966;28;50830;-68
2022/07/11 08:20:12;;;;;;;;;1.00;1.00;;;;;;;;5056860;28;51270;-68
2022/07/11 08:22:37;;;;;;;;;1.00;1.00;;;;;;;;5069756;28;51876;-71
2022/07/11 08:25:03;;;;;;;;;2.00;1.33;;;;;;;;5071721;28;51069;-69
2022/07/11 08:27:28;;;;;;;;;3.00;1.33;;;;;;;;5053341;28;50975;-67
2022/07/11 08:29:53;;;;;;;;;3.00;3.00;;;;;;;;5070661;28;51355;-67
2022/07/11 08:32:18;;;;;;;;;4.00;4.00;;;;;;;;5064385;28;52429;-68
2022/07/11 08:34:46;;;;;;;;;2.00;2.00;;;;;;;;5051423;28;50900;-68
2022/07/11 08:37:12;;;;;;;;;3.00;3.00;;;;;;;;5051537;28;51022;-68
2022/07/11 08:39:37;;;;;;;;;2.67;2.67;;;;;;;;5063699;28;51188;-70
2022/07/11 08:42:02;;;;;;;;;3.00;3.00;;;;;;;;5071391;28;51049;-68
2022/07/11 08:44:28;;;;;;;;;2.00;2.00;;;;;;;;5071528;28;51202;-68
2022/07/11 08:46:54;;;;;;;;;2.00;2.00;;;;;;;;5053518;28;51197;-70
2022/07/11 08:49:19;;;;;;;;;3.00;3.00;;;;;;;;5071616;28;51040;-70
2022/07/11 08:51:46;;;;;;;;;3.00;3.00;;;;;;;;5066901;27;51213;-70
2022/07/11 08:54:12;;;;;;;;;2.00;2.00;;;;;;;;5064291;27;51107;-70
2022/07/11 08:56:37;;;;;;;;;2.00;2.00;;;;;;;;5063666;27;51000;-69
2022/07/11 08:59:03;;;;;;;;;2.00;2.00;;;;;;;;5058388;27;50979;-68
2022/07/11 09:01:29;;;;;;;;;3.00;2.67;;;;;;;;5064532;28;51056;-69
2022/07/11 09:03:55;;;;;;;;;2.33;2.33;;;;;;;;5055368;28;51095;-69
2022/07/11 09:06:20;;;;;;;;;3.00;3.00;;;;;;;;5054682;28;51164;-68
2022/07/11 09:08:46;;;;;;;;;3.00;3.00;;;;;;;;5054827;28;51077;-68
2022/07/11 09:11:11;;;;;;;;;2.00;2.00;;;;;;;;5055945;27;51197;-73
2022/07/11 09:13:36;;;;;;;;;3.00;3.00;;;;;;;;5060193;28;51097;-71
2022/07/11 09:16:03;;;;;;;;;1.00;1.00;;;;;;;;5065624;28;51149;-71
2022/07/11 09:18:41;;;;;;;;;3.00;3.00;;;;;;;;5070207;28;51261;-71
2022/07/11 09:26:44;;;;;;;;;4.00;3.00;;;;;;;;5055017;27;50856;-70
2022/07/11 09:29:10;;;;;;;;;2.67;2.33;;;;;;;;5071104;27;51133;-71
2022/07/11 09:31:36;;;;;;;;;3.00;3.00;;;;;;;;5066035;28;52671;-71
2022/07/11 09:34:03;;;;;;;;;3.00;3.00;;;;;;;;5061710;28;50853;-70
2022/07/11 09:36:35;;;;;;;;;2.00;2.00;;;;;;;;5067551;27;51143;-74
2022/07/11 09:39:01;;;;;;;;;3.00;3.00;;;;;;;;5057611;27;51348;-72
2022/07/11 09:41:26;;;;;;;;;3.00;3.00;;;;;;;;5062816;28;51793;-74
2022/07/11 09:43:51;;;;;;;;;3.00;3.00;;;;;;;;5067667;28;50934;-71
2022/07/11 09:46:23;;;;;;;;;2.00;2.00;;;;;;;;5061926;27;50947;-71
2022/07/11 09:48:48;;;;;;;;;3.00;3.00;;;;;;;;5061041;27;51346;-75
2022/07/11 09:51:19;;;;;;;;;3.00;3.00;;;;;;;;5056017;27;51791;-74
2022/07/11 09:53:56;;;;;;;;;3.67;3.67;;;;;;;;5319713;22;50974;-71
2022/07/11 09:56:40;;;;;;;;;3.00;3.00;;;;;;;;5050623;28;51074;-72
2022/07/11 09:59:06;;;;;;;;;3.00;3.00;;;;;;;;5032952;28;51279;-71
2022/07/11 10:01:32;;;;;;;;;2.00;2.00;;;;;;;;5034871;28;51059;-73
2022/07/11 10:03:58;;;;;;;;;0.67;0.67;;;;;;;;5033459;28;50899;-74
2022/07/11 10:06:23;;;;;;;;;3.00;3.00;;;;;;;;5041909;28;50948;-71
2022/07/11 10:08:49;;;;;;;;;4.00;3.67;;;;;;;;5033281;28;50966;-69
2022/07/11 10:11:15;;;;;;;;;3.00;3.00;;;;;;;;5032835;28;52118;-69
2022/07/11 10:13:40;;;;;;;;;3.00;3.00;;;;;;;;5048600;28;51075;-69
2022/07/11 10:16:26;;;;;;;;;2.67;2.00;;;;;;;;5046690;28;50863;-70
2022/07/11 10:19:14;;;;;;;;;1.33;1.33;;;;;;;;5039816;28;51227;-70
2022/07/11 10:21:47;;;;;;;;;3.00;2.00;;;;;;;;5020931;28;53473;-69
2022/07/11 10:24:28;;;;;;;;;2.00;2.00;;;;;;;;5045241;28;51266;-71
2022/07/11 10:27:09;;;;;;;;;2.00;2.00;;;;;;;;5043501;28;51001;-71
2022/07/11 10:29:37;;;;;;;;;0.33;0.33;;;;;;;;5049468;28;51126;-71
2022/07/11 10:32:07;;;;;;;;;1.00;1.00;;;;;;;;5038030;28;51913;-68
2022/07/11 10:34:32;;;;;;;;;4.00;3.00;;;;;;;;5036537;28;51035;-70
2022/07/11 10:37:02;;;;;;;;;3.00;3.00;;;;;;;;5047274;28;50905;-70
2022/07/11 10:39:28;;;;;;;;;2.67;2.67;;;;;;;;5023575;28;52828;-68
2022/07/11 10:41:53;;;;;;;;;2.00;2.00;;;;;;;;5044337;28;52835;-68
2022/07/11 10:44:19;;;;;;;;;2.00;2.00;;;;;;;;5047861;28;51164;-69
2022/07/11 10:46:44;;;;;;;;;2.00;2.00;;;;;;;;5043906;28;51211;-68
2022/07/11 10:49:15;;;;;;;;;2.33;2.00;;;;;;;;5046919;28;51062;-70
2022/07/11 10:51:40;;;;;;;;;1.67;1.67;;;;;;;;5031658;28;52870;-70
2022/07/11 10:54:18;;;;;;;;;2.00;2.00;;;;;;;;5032988;28;51080;-70
2022/07/11 10:56:43;;;;;;;;;1.00;1.00;;;;;;;;5031867;28;51101;-69
2022/07/11 10:59:14;;;;;;;;;0.67;0.00;;;;;;;;5021898;28;51063;-70
2022/07/11 11:01:58;;;;;;;;;1.33;1.33;;;;;;;;5041979;28;52011;-69
2022/07/11 11:04:42;;;;;;;;;1.00;1.00;;;;;;;;5046129;28;51520;-69
2022/07/11 11:07:26;;;;;;;;;3.00;2.00;;;;;;;;5043798;28;51239;-71
2022/07/11 11:09:52;;;;;;;;;2.00;2.00;;;;;;;;5039819;28;51414;-69
2022/07/11 11:12:17;;;;;;;;;1.67;1.67;;;;;;;;5043685;28;52099;-70
2022/07/11 11:14:42;;;;;;;;;1.00;1.00;;;;;;;;5036945;28;50993;-70
2022/07/11 11:20:07;;;;;;;;;3.00;3.00;;;;;;;;5227807;22;51083;-69
2022/07/11 11:22:32;;;;;;;;;3.00;3.00;;;;;;;;5035418;28;51827;-70
2022/07/11 11:24:57;;;;;;;;;2.67;2.67;;;;;;;;5049832;28;51099;-76
2022/07/11 11:27:24;;;;;;;;;3.33;2.67;;;;;;;;5045173;28;50929;-67
2022/07/11 11:29:50;;;;;;;;;3.00;3.00;;;;;;;;5047848;28;51338;-68
2022/07/11 11:32:15;;;;;;;;;3.00;3.00;;;;;;;;5047278;28;51110;-70
2022/07/11 11:34:41;;;;;;;;;3.00;3.00;;;;;;;;5040521;28;51044;-68
2022/07/11 11:37:07;;;;;;;;;2.00;2.00;;;;;;;;5044147;28;51135;-66
2022/07/11 11:39:38;;;;;;;;;3.00;3.00;;;;;;;;5040599;28;51290;-68
2022/07/11 11:42:05;;;;;;;;;2.67;2.67;;;;;;;;5043606;28;51210;-67
2022/07/11 11:44:31;;;;;;;;;2.00;2.00;;;;;;;;5026974;28;51145;-67
2022/07/11 11:46:57;;;;;;;;;2.00;2.00;;;;;;;;5040839;28;51114;-69
2022/07/11 11:49:22;;;;;;;;;2.67;2.67;;;;;;;;5046469;28;51172;-71
2022/07/11 11:51:48;;;;;;;;;2.00;2.00;;;;;;;;5020701;28;53808;-67
2022/07/11 11:54:21;;;;;;;;;4.33;4.33;;;;;;;;5047361;28;51449;-69
2022/07/11 11:56:47;;;;;;;;;2.00;1.67;;;;;;;;5048090;28;51123;-68
2022/07/11 11:59:12;;;;;;;;;1.33;1.00;;;;;;;;5040031;28;51327;-67
2022/07/11 12:01:38;;;;;;;;;1.00;1.00;;;;;;;;5016496;28;51209;-66
2022/07/11 12:04:05;;;;;;;;;2.00;2.00;;;;;;;;5046468;28;50966;-66
2022/07/11 12:06:34;;;;;;;;;3.00;3.00;;;;;;;;5047062;28;51106;-67
2022/07/11 12:09:04;;;;;;;;;0.33;0.33;;;;;;;;5031413;28;51059;-68
2022/07/11 12:11:30;;;;;;;;;1.00;1.00;;;;;;;;5012923;28;52296;-67
2022/07/11 12:13:56;;;;;;;;;3.33;2.33;;;;;;;;5047203;28;50970;-67
2022/07/11 12:16:41;;;;;;;;;2.33;1.33;;;;;;;;5050203;28;51297;-67
2022/07/11 12:19:10;;;;;;;;;1.00;1.00;;;;;;;;5051057;28;50886;-67
2022/07/11 12:21:37;;;;;;;;;3.33;3.33;;;;;;;;5051055;28;52292;-67
2022/07/11 12:24:03;;;;;;;;;1.00;1.00;;;;;;;;5051288;28;51032;-67
2022/07/11 12:26:29;;;;;;;;;2.00;2.00;;;;;;;;5009868;28;51086;-68
2022/07/11 12:29:15;;;;;;;;;1.67;1.67;;;;;;;;5044613;28;50945;-69
2022/07/11 12:31:44;;;;;;;;;2.00;2.00;;;;;;;;5053769;28;51126;-67
2022/07/11 12:34:10;;;;;;;;;1.00;1.00;;;;;;;;5054914;28;51062;-67
2022/07/11 12:36:36;;;;;;;;;0.00;0.00;;;;;;;;5053729;28;51152;-67
2022/07/11 12:39:02;;;;;;;;;2.00;2.00;;;;;;;;5036464;28;51137;-67
2022/07/11 12:41:31;;;;;;;;;1.00;1.00;;;;;;;;5053412;28;52213;-67
2022/07/11 12:46:40;;;;;;;;;1.00;1.00;;;;;;;;5046342;28;51127;-67
2022/07/11 12:49:10;;;;;;;;;2.00;2.00;;;;;;;;5054298;28;51249;-68
2022/07/11 12:51:40;;;;;;;;;3.00;3.00;;;;;;;;5054124;28;51691;-67
2022/07/11 12:54:09;;;;;;;;;2.00;1.00;;;;;;;;5035624;28;50988;-68
2022/07/11 12:56:35;;;;;;;;;4.33;4.00;;;;;;;;5033715;28;50923;-67
2022/07/11 12:59:01;;;;;;;;;3.00;3.00;;;;;;;;5034116;28;51128;-67
2022/07/11 13:01:27;;;;;;;;;1.33;1.33;;;;;;;;5044768;28;51641;-68
2022/07/11 13:03:53;;;;;;;;;2.00;2.00;;;;;;;;5053660;28;51040;-67
2022/07/11 13:08:42;;;;;;;;;1.33;1.33;;;;;;;;5053314;28;50910;-66
2022/07/11 13:09:03;;;;;;;;;1.67;1.00;;;;;;;;5041191;28;51174;-67
2022/07/11 13:11:31;;;;;;;;;1.00;1.00;;;;;;;;5053315;28;51326;-67
2022/07/11 13:13:56;;;;;;;;;3.00;3.00;;;;;;;;5041222;28;51161;-67
2022/07/11 13:16:21;;;;;;;;;3.00;3.00;;;;;;;;5053285;28;50953;-67
2022/07/11 13:18:48;;;;;;;;;2.33;2.00;;;;;;;;5053931;28;50865;-68
2022/07/11 13:21:14;;;;;;;;;2.00;2.00;;;;;;;;5049311;28;51141;-68
2022/07/11 13:23:39;;;;;;;;;2.00;2.00;;;;;;;;5053358;28;51226;-67
2022/07/11 13:26:05;;;;;;;;;2.00;2.00;;;;;;;;5038817;28;51523;-66
2022/07/11 13:28:31;;;;;;;;;1.33;1.00;;;;;;;;5022335;28;51432;-67
2022/07/11 13:30:57;;;;;;;;;2.33;2.33;;;;;;;;5053395;28;52267;-67
2022/07/11 13:33:22;;;;;;;;;1.67;1.00;;;;;;;;5053823;28;50856;-67
2022/07/11 13:35:48;;;;;;;;;1.67;1.67;;;;;;;;5037694;28;51084;-67
2022/07/11 13:38:14;;;;;;;;;2.33;1.67;;;;;;;;5017140;28;51036;-67
2022/07/11 13:40:39;;;;;;;;;1.67;1.67;;;;;;;;5032330;28;50982;-67
2022/07/11 13:43:04;;;;;;;;;3.67;3.00;;;;;;;;5015282;28;50991;-67
2022/07/11 13:45:30;;;;;;;;;2.00;2.00;;;;;;;;5041936;28;51127;-67
2022/07/11 13:47:57;;;;;;;;;2.00;2.00;;;;;;;;5053557;28;51931;-66
2022/07/11 13:50:22;;;;;;;;;2.00;2.00;;;;;;;;5053458;28;51165;-68
2022/07/11 13:52:50;;;;;;;;;1.67;1.67;;;;;;;;5045563;28;50945;-67
2022/07/11 13:55:16;;;;;;;;;2.67;2.67;;;;;;;;5039577;28;51055;-69
2022/07/11 13:57:41;;;;;;;;;2.67;2.00;;;;;;;;5035442;28;51345;-67
2022/07/11 14:00:07;;;;;;;;;2.00;2.00;;;;;;;;5053137;28;51877;-67
2022/07/11 14:02:32;;;;;;;;;2.00;2.00;;;;;;;;5033495;28;51066;-67
2022/07/11 14:04:58;;;;;;;;;3.33;3.33;;;;;;;;5037057;28;50949;-68
2022/07/11 14:07:23;;;;;;;;;5.00;5.00;;;;;;;;5053703;28;51344;-68
2022/07/11 14:09:48;;;;;;;;;3.00;3.00;;;;;;;;5053249;28;50858;-67
2022/07/11 14:12:14;;;;;;;;;3.00;3.00;;;;;;;;5052951;28;51085;-68
2022/07/11 14:14:39;;;;;;;;;2.00;2.00;;;;;;;;5052362;28;50984;-68
2022/07/11 14:17:05;;;;;;;;;4.00;4.00;;;;;;;;5049055;28;51048;-68
2022/07/11 14:19:32;;;;;;;;;3.00;3.00;;;;;;;;5047929;28;51883;-67
2022/07/11 14:21:57;;;;;;;;;3.33;3.33;;;;;;;;5052424;28;50886;-67
2022/07/11 14:24:23;;;;;;;;;3.00;3.00;;;;;;;;5053119;28;51065;-68
2022/07/11 14:26:48;;;;;;;;;3.67;3.33;;;;;;;;5052865;28;51403;-67
2022/07/11 14:29:14;;;;;;;;;2.67;2.67;;;;;;;;5051499;28;51146;-68
2022/07/11 14:31:39;;;;;;;;;4.00;4.00;;;;;;;;5052191;28;51021;-67
2022/07/11 14:34:05;;;;;;;;;2.33;2.33;;;;;;;;5052575;28;50969;-68
2022/07/11 14:36:30;;;;;;;;;4.00;4.00;;;;;;;;5052397;28;51227;-68
2022/07/11 14:38:55;;;;;;;;;5.00;5.00;;;;;;;;5051059;28;52247;-67
2022/07/11 14:41:21;;;;;;;;;1.33;1.33;;;;;;;;5052051;28;51084;-67
2022/07/11 14:43:48;;;;;;;;;4.00;4.00;;;;;;;;5051885;28;51131;-67
2022/07/11 14:46:13;;;;;;;;;5.00;5.00;;;;;;;;5052755;28;51015;-67
2022/07/11 14:48:39;;;;;;;;;3.33;3.33;;;;;;;;5046530;28;51074;-68
2022/07/11 14:51:04;;;;;;;;;4.67;4.67;;;;;;;;5051220;28;51072;-68
2022/07/11 14:53:29;;;;;;;;;5.00;5.00;;;;;;;;5039014;28;51007;-68
2022/07/11 14:55:55;;;;;;;;;4.00;3.33;;;;;;;;5032185;28;51855;-68